Time;durP1;ratioP1;P1;durP2;ratioP2;P2;SDS_P1;SDS_P2;PMS_P1;PMS_P2;Temp;Humidity;BMP_temperature;BMP_pressure;BME280_temperature;BME280_humidity;BME280_pressure;Samples;Min_cycle;Max_cycle;Signal;HPM_P1;HPM_P2
2022/09/29 00:02:10;;;;;;;;;2.25;1.25;;;;;12.03;69.46;99236.81;5077624;27;45600;-79
2022/09/29 00:04:35;;;;;;;;;2.50;1.75;;;;;11.75;69.56;99195.69;5097090;27;45307;-81
2022/09/29 00:07:01;;;;;;;;;2.00;1.00;;;;;11.85;69.46;99215.50;5097171;27;45483;-81
2022/09/29 00:09:26;;;;;;;;;1.25;1.00;;;;;12.00;69.54;99242.25;5095595;27;45392;-78
2022/09/29 00:11:55;;;;;;;;;1.00;1.00;;;;;11.99;69.66;99229.91;5095256;27;45400;-77
2022/09/29 00:14:22;;;;;;;;;1.75;1.00;;;;;11.86;69.75;99213.72;5095272;27;45507;-78
2022/09/29 00:16:47;;;;;;;;;0.75;0.75;;;;;11.89;69.17;99211.78;5095649;27;45341;-81
2022/09/29 00:19:13;;;;;;;;;1.25;1.00;;;;;11.83;69.92;99201.50;5111697;27;45350;-78
2022/09/29 00:21:38;;;;;;;;;0.25;0.25;;;;;11.81;69.68;99207.78;5117070;27;45588;-79
2022/09/29 00:24:04;;;;;;;;;1.75;1.00;;;;;12.01;70.08;99225.41;5098276;27;47003;-78
2022/09/29 00:26:29;;;;;;;;;1.00;1.00;;;;;12.01;69.62;99225.41;5115812;27;45603;-82
2022/09/29 00:28:57;;;;;;;;;0.00;0.00;;;;;11.89;69.50;99210.94;5100094;27;45503;-79
2022/09/29 00:31:25;;;;;;;;;3.00;1.00;;;;;12.01;69.29;99225.41;5091102;27;45483;-80
2022/09/29 00:33:51;;;;;;;;;1.50;1.00;;;;;11.85;69.42;99207.56;5074917;28;46495;-77
2022/09/29 00:36:18;;;;;;;;;1.00;1.00;;;;;11.89;70.42;99205.66;5096989;27;45378;-81
2022/09/29 00:38:46;;;;;;;;;1.50;1.50;;;;;11.87;69.56;99210.13;5105754;27;45414;-80
2022/09/29 00:41:23;;;;;;;;;1.00;1.00;;;;;11.78;69.74;99200.84;5098687;27;45384;-81
2022/09/29 00:43:59;;;;;;;;;0.75;0.75;;;;;11.99;69.69;99221.97;5098822;27;45570;-80
2022/09/29 00:46:51;;;;;;;;;0.00;0.00;;;;;11.79;70.21;99194.63;5088133;27;45523;-81
2022/09/29 00:49:32;;;;;;;;;1.00;1.00;;;;;11.97;69.57;99224.69;5112576;27;45497;-78
2022/09/29 00:52:06;;;;;;;;;0.00;0.00;;;;;11.91;70.17;99209.06;5094364;27;45548;-79
2022/09/29 00:54:37;;;;;;;;;2.00;0.50;;;;;11.83;69.82;99193.56;5094208;27;45395;-80
2022/09/29 00:57:06;;;;;;;;;0.75;0.75;;;;;11.87;70.09;99199.53;5092552;27;45531;-79
2022/09/29 00:59:45;;;;;;;;;2.25;1.25;;;;;11.90;69.90;99202.94;5093963;27;45464;-79
2022/09/29 01:02:11;;;;;;;;;1.00;1.00;;;;;11.82;69.65;99188.31;5095363;27;45406;-79
2022/09/29 01:04:36;;;;;;;;;0.75;0.75;;;;;11.89;69.74;99201.19;5097296;27;45679;-79
2022/09/29 01:07:01;;;;;;;;;1.00;1.00;;;;;11.90;69.73;99205.56;5098355;27;45468;-79
2022/09/29 01:09:34;;;;;;;;;0.25;0.25;;;;;11.88;69.88;99199.47;5097454;27;45371;-79
2022/09/29 01:12:00;;;;;;;;;1.75;1.00;;;;;11.87;69.69;99203.06;5098012;27;45641;-79
2022/09/29 01:14:28;;;;;;;;;0.00;0.00;;;;;11.86;69.54;99206.63;5097867;27;45524;-79
2022/09/29 01:16:54;;;;;;;;;1.00;1.00;;;;;11.78;69.83;99197.34;5112993;27;45470;-78
2022/09/29 01:19:41;;;;;;;;;4.25;1.00;;;;;11.86;69.22;99198.69;5122395;27;45449;-78
2022/09/29 01:22:42;;;;;;;;;0.25;0.25;;;;;11.74;70.24;99175.44;5100584;27;45318;-79
2022/09/29 01:25:18;;;;;;;;;0.50;0.25;;;;;11.67;69.11;99171.38;5077594;28;46489;-79
2022/09/29 01:28:13;;;;;;;;;3.00;1.00;;;;;11.81;69.30;99182.19;5114456;27;45814;-79
2022/09/29 01:30:57;;;;;;;;;1.00;0.00;;;;;11.81;69.12;99181.31;5099064;27;45398;-78
2022/09/29 01:33:46;;;;;;;;;0.25;0.25;;;;;11.81;69.23;99182.19;5094104;27;45530;-78
2022/09/29 01:36:39;;;;;;;;;0.75;0.75;;;;;11.79;69.03;99175.22;5098477;27;45488;-79
2022/09/29 01:39:23;;;;;;;;;1.00;1.00;;;;;11.80;68.90;99177.81;5097888;27;45487;-79
2022/09/29 01:42:00;;;;;;;;;1.25;1.25;;;;;11.73;69.63;99173.72;5117701;27;45416;-78
2022/09/29 01:44:40;;;;;;;;;1.00;1.00;;;;;11.70;69.54;99166.78;5118222;27;45500;-79
2022/09/29 01:47:30;;;;;;;;;4.50;1.75;;;;;11.80;69.80;99184.91;5121820;27;46903;-79
2022/09/29 01:50:05;;;;;;;;;1.00;1.00;;;;;11.76;70.02;99181.53;5128645;27;45366;-79
2022/09/29 01:52:38;;;;;;;;;1.00;1.00;;;;;11.77;69.84;99187.66;5117904;27;45367;-79
2022/09/29 01:55:10;;;;;;;;;0.00;0.00;;;;;11.69;70.03;99177.44;5119574;27;45452;-81
2022/09/29 01:57:40;;;;;;;;;1.00;1.00;;;;;11.77;70.14;99185.91;5119084;27;45724;-80
2022/09/29 02:00:10;;;;;;;;;1.50;1.50;;;;;11.75;69.69;99187.72;5096446;27;45240;-79
2022/09/29 02:02:48;;;;;;;;;1.50;1.50;;;;;11.67;70.22;99174.88;5096081;27;45497;-79
2022/09/29 02:05:23;;;;;;;;;1.50;1.50;;;;;11.72;70.13;99199.34;5078245;27;45389;-78
2022/09/29 02:07:49;;;;;;;;;3.75;0.75;;;;;11.73;70.35;99195.75;5097078;27;45738;-79
2022/09/29 02:10:28;;;;;;;;;1.00;1.00;;;;;11.73;70.16;99197.53;5097039;27;45428;-79
2022/09/29 02:12:58;;;;;;;;;2.00;1.00;;;;;11.74;69.96;99197.47;5078562;27;45569;-79
2022/09/29 02:15:30;;;;;;;;;0.50;0.50;;;;;11.70;70.19;99181.81;5115541;27;45412;-78
2022/09/29 02:18:02;;;;;;;;;1.25;1.25;;;;;11.75;70.42;99198.31;5117415;27;46731;-79
2022/09/29 02:20:28;;;;;;;;;1.00;1.00;;;;;11.67;70.34;99185.44;5117700;27;45396;-82
2022/09/29 02:22:55;;;;;;;;;1.50;1.50;;;;;11.68;69.91;99196.91;5103468;27;45623;-82
2022/09/29 02:25:22;;;;;;;;;1.25;1.25;;;;;11.61;70.08;99175.16;5077274;27;45621;-81
2022/09/29 02:27:49;;;;;;;;;1.50;1.50;;;;;11.73;69.68;99200.19;5096924;27;46108;-81
2022/09/29 02:30:15;;;;;;;;;1.25;1.25;;;;;11.69;69.66;99191.56;5097691;27;45472;-81
2022/09/29 02:32:41;;;;;;;;;1.00;1.00;;;;;11.69;69.26;99195.97;5091890;27;45505;-80
2022/09/29 02:35:10;;;;;;;;;0.25;0.25;;;;;11.68;69.42;99197.75;5096262;27;45596;-82
2022/09/29 02:37:38;;;;;;;;;1.00;1.00;;;;;11.72;69.59;99198.47;5097477;27;45480;-80
2022/09/29 02:40:18;;;;;;;;;1.00;1.00;;;;;11.70;69.45;99190.59;5096395;27;45419;-81
2022/09/29 02:42:52;;;;;;;;;1.50;1.50;;;;;11.74;69.50;99191.34;5095526;27;45312;-80
2022/09/29 02:45:39;;;;;;;;;2.00;1.00;;;;;11.68;69.57;99181.03;5114427;27;45564;-81
2022/09/29 02:48:24;;;;;;;;;0.75;0.75;;;;;11.72;69.21;99193.19;5099457;27;47056;-81
2022/09/29 02:51:11;;;;;;;;;1.00;1.00;;;;;11.72;69.52;99187.88;5117707;27;45499;-81
2022/09/29 02:53:36;;;;;;;;;0.00;0.00;;;;;11.73;69.67;99187.81;5116928;27;45494;-83
2022/09/29 02:56:32;;;;;;;;;1.50;0.75;;;;;11.72;69.45;99186.13;5098617;27;45636;-81
2022/09/29 02:59:07;;;;;;;;;1.50;0.25;;;;;11.72;69.58;99186.13;5101522;27;45590;-81
2022/09/29 03:01:33;;;;;;;;;0.00;0.00;;;;;11.54;69.81;99164.00;5096221;27;45530;-79
2022/09/29 03:03:59;;;;;;;;;0.75;0.75;;;;;11.69;69.23;99174.78;5076883;27;45464;-79
2022/09/29 03:06:26;;;;;;;;;2.00;2.00;;;;;11.63;70.09;99165.38;5096768;27;45667;-77
2022/09/29 03:08:52;;;;;;;;;2.00;0.75;;;;;11.58;69.93;99158.56;5096019;27;46107;-79
2022/09/29 03:11:17;;;;;;;;;2.00;0.75;;;;;11.69;69.80;99166.84;5095266;27;45518;-78
2022/09/29 03:13:43;;;;;;;;;2.00;2.00;;;;;11.62;69.90;99161.00;5098829;27;45523;-79
2022/09/29 03:16:08;;;;;;;;;1.00;1.00;;;;;11.52;70.40;99144.72;5095720;27;45572;-79
2022/09/29 03:18:33;;;;;;;;;3.00;1.50;;;;;11.52;70.53;99136.78;5077386;27;47893;-78
2022/09/29 03:20:59;;;;;;;;;1.00;1.00;;;;;11.53;70.48;99161.44;5096308;27;45532;-78
2022/09/29 03:23:25;;;;;;;;;0.75;0.75;;;;;11.62;70.54;99176.03;5096617;27;45400;-78
2022/09/29 03:25:50;;;;;;;;;1.00;1.00;;;;;11.65;70.36;99168.78;5095746;27;45389;-79
2022/09/29 03:28:15;;;;;;;;;1.00;1.00;;;;;11.63;70.50;99167.13;5095642;27;45613;-78
2022/09/29 03:30:41;;;;;;;;;1.00;1.00;;;;;11.67;70.28;99176.66;5095799;27;45484;-79
2022/09/29 03:33:07;;;;;;;;;3.00;1.00;;;;;11.56;70.53;99150.69;5096013;27;45378;-79
2022/09/29 03:35:32;;;;;;;;;4.00;2.00;;;;;11.57;70.81;99152.44;5095498;27;45405;-78
2022/09/29 03:38:00;;;;;;;;;1.25;1.25;;;;;11.42;70.72;99122.25;5095476;27;45394;-79
2022/09/29 03:40:26;;;;;;;;;2.00;2.00;;;;;11.71;70.96;99175.59;5095675;27;45342;-79
2022/09/29 03:42:52;;;;;;;;;1.75;1.00;;;;;11.48;71.19;99132.53;5095476;27;45327;-79
2022/09/29 03:45:17;;;;;;;;;3.00;2.50;;;;;11.58;71.55;99147.97;5093656;27;45363;-79
2022/09/29 03:47:42;;;;;;;;;1.00;1.00;;;;;11.53;71.80;99143.75;5087660;28;45501;-79
2022/09/29 03:50:08;;;;;;;;;0.75;0.00;;;;;11.67;71.42;99163.44;5077668;28;45399;-78
2022/09/29 03:52:33;;;;;;;;;0.75;0.75;;;;;11.51;71.79;99139.47;5075476;28;45536;-79
2022/09/29 03:54:59;;;;;;;;;1.00;1.00;;;;;11.38;71.43;99120.66;5113775;27;45552;-79
2022/09/29 03:57:24;;;;;;;;;1.00;1.00;;;;;11.64;71.95;99164.41;5101236;27;47369;-78
2022/09/29 03:59:49;;;;;;;;;1.00;1.00;;;;;11.58;72.24;99154.13;5095788;27;45417;-79
2022/09/29 04:02:17;;;;;;;;;4.75;2.00;;;;;11.67;72.48;99174.00;5078116;27;45348;-79
2022/09/29 04:04:43;;;;;;;;;1.50;1.50;;;;;10.97;72.42;99057.31;5111299;27;45393;-81
2022/09/29 04:07:08;;;;;;;;;1.00;1.00;;;;;11.68;72.29;99183.69;5110100;27;45409;-81
2022/09/29 04:09:33;;;;;;;;;3.00;1.25;;;;;11.65;72.64;99178.53;5096183;27;45417;-81
2022/09/29 04:11:59;;;;;;;;;1.00;1.00;;;;;11.64;72.64;99176.81;5096304;27;45429;-78
2022/09/29 04:14:24;;;;;;;;;1.50;1.50;;;;;11.47;72.77;99157.28;5095708;27;45375;-79
2022/09/29 04:16:49;;;;;;;;;2.00;2.00;;;;;11.58;72.79;99174.44;5094612;27;45492;-79
2022/09/29 04:19:15;;;;;;;;;2.00;2.00;;;;;11.52;72.97;99167.63;5094910;27;45499;-78
2022/09/29 04:21:40;;;;;;;;;1.00;1.00;;;;;11.58;72.71;99179.75;5076865;27;45414;-79
2022/09/29 04:24:05;;;;;;;;;2.00;1.50;;;;;11.58;73.35;99191.16;5095564;27;45639;-78
2022/09/29 04:26:31;;;;;;;;;4.00;4.00;;;;;11.43;72.81;99158.31;5076066;27;45365;-80
2022/09/29 04:28:56;;;;;;;;;3.00;3.00;;;;;11.45;73.43;99169.72;5095162;27;45406;-79
2022/09/29 04:31:21;;;;;;;;;1.75;1.75;;;;;11.44;73.34;99173.28;5095870;27;45322;-78
2022/09/29 04:33:47;;;;;;;;;2.00;2.00;;;;;11.41;73.54;99178.72;5094717;27;45577;-78
2022/09/29 04:36:12;;;;;;;;;2.50;2.50;;;;;11.49;73.28;99194.25;5113721;27;45460;-77
2022/09/29 04:38:37;;;;;;;;;4.75;4.00;;;;;11.38;73.61;99169.13;5094961;27;45389;-79
2022/09/29 04:41:03;;;;;;;;;4.00;4.00;;;;;11.43;73.38;99181.28;5094938;27;45319;-78
2022/09/29 04:43:28;;;;;;;;;3.00;3.00;;;;;11.42;73.73;99180.44;5100040;27;45437;-78
2022/09/29 04:46:03;;;;;;;;;2.25;1.75;;;;;11.48;73.93;99179.31;5115875;27;45380;-78
2022/09/29 04:48:29;;;;;;;;;3.00;3.00;;;;;11.38;73.51;99168.28;5075386;27;45471;-79
2022/09/29 04:50:54;;;;;;;;;5.75;3.50;;;;;11.48;73.56;99189.91;5058090;28;45453;-79
2022/09/29 04:53:19;;;;;;;;;1.75;1.75;;;;;11.25;73.98;99156.53;5104231;27;45302;-78
2022/09/29 04:55:45;;;;;;;;;3.00;3.00;;;;;11.37;73.68;99171.84;5106447;27;45382;-79
2022/09/29 04:58:10;;;;;;;;;2.00;1.00;;;;;11.47;74.11;99194.31;5101899;27;45442;-78
2022/09/29 05:00:36;;;;;;;;;1.00;1.00;;;;;11.23;73.87;99158.41;5095673;27;45438;-79
2022/09/29 05:03:02;;;;;;;;;6.50;4.25;;;;;11.47;73.95;99198.75;5095383;27;45444;-79
2022/09/29 05:05:27;;;;;;;;;3.50;3.50;;;;;10.86;73.39;99099.25;5116519;27;47129;-79
2022/09/29 05:07:53;;;;;;;;;4.00;2.00;;;;;11.41;73.92;99189.31;5118689;27;45515;-78
2022/09/29 05:10:18;;;;;;;;;4.75;2.00;;;;;11.19;73.88;99157.69;5097306;27;45414;-79
2022/09/29 05:12:49;;;;;;;;;5.00;3.00;;;;;11.45;73.83;99212.06;5098239;27;45476;-79
2022/09/29 05:15:15;;;;;;;;;4.00;2.00;;;;;11.25;74.07;99169.75;5117082;27;45220;-80
2022/09/29 05:17:40;;;;;;;;;2.00;2.00;;;;;11.27;74.10;99165.28;5117348;27;45353;-81
2022/09/29 05:20:06;;;;;;;;;4.25;4.25;;;;;11.23;74.24;99163.69;5102120;27;45473;-82
2022/09/29 05:22:31;;;;;;;;;5.00;5.00;;;;;11.30;74.07;99178.34;5096700;27;45452;-81
2022/09/29 05:24:56;;;;;;;;;4.25;3.50;;;;;11.34;74.11;99180.78;5111158;27;45522;-83
2022/09/29 05:27:22;;;;;;;;;2.50;2.00;;;;;11.38;74.53;99194.72;5097134;27;45363;-82
2022/09/29 05:29:48;;;;;;;;;5.75;4.50;;;;;11.22;74.17;99165.47;5104125;27;45733;-81
2022/09/29 05:32:13;;;;;;;;;5.00;4.00;;;;;11.41;73.87;99202.53;5093391;27;45428;-82
2022/09/29 05:34:38;;;;;;;;;1.25;1.25;;;;;11.01;74.15;99132.91;5101561;27;45389;-81
2022/09/29 05:37:04;;;;;;;;;3.50;3.50;;;;;11.39;74.22;99199.09;5115265;27;45488;-81
2022/09/29 05:39:33;;;;;;;;;4.00;4.00;;;;;11.41;74.07;99205.16;5083571;27;45477;-81
2022/09/29 05:41:58;;;;;;;;;2.50;2.50;;;;;11.41;74.04;99209.63;5095545;27;45397;-81
2022/09/29 05:44:23;;;;;;;;;2.50;2.50;;;;;11.27;73.97;99187.28;5120888;27;45460;-81
2022/09/29 05:46:48;;;;;;;;;2.00;2.00;;;;;11.12;73.93;99159.72;5124418;27;45465;-81
2022/09/29 05:49:14;;;;;;;;;2.00;2.00;;;;;11.37;74.23;99208.88;5112667;27;45391;-81
2022/09/29 05:51:39;;;;;;;;;5.00;4.25;;;;;11.08;74.21;99168.72;5100230;27;45468;-81
2022/09/29 05:54:05;;;;;;;;;6.50;4.75;;;;;11.30;74.29;99195.06;5098480;27;45448;-81
2022/09/29 05:56:30;;;;;;;;;5.00;2.00;;;;;11.37;74.00;99206.22;5062488;27;45426;-81
2022/09/29 05:58:55;;;;;;;;;6.50;5.00;;;;;11.37;73.98;99204.47;5076852;28;45342;-81
2022/09/29 06:01:23;;;;;;;;;8.00;5.00;;;;;11.33;74.21;99196.75;5082477;27;45487;-82
2022/09/29 06:03:50;;;;;;;;;5.25;3.75;;;;;11.41;74.40;99212.25;5102868;27;46366;-81
2022/09/29 06:06:19;;;;;;;;;2.00;2.00;;;;;11.44;73.82;99212.97;5104980;27;45409;-82
2022/09/29 06:08:46;;;;;;;;;5.00;4.50;;;;;11.42;74.30;99208.66;5097954;27;45480;-81
2022/09/29 06:11:17;;;;;;;;;5.00;5.00;;;;;11.44;73.98;99212.97;5097158;27;45331;-82
2022/09/29 06:13:45;;;;;;;;;3.50;3.50;;;;;11.43;73.94;99213.88;5098521;27;45704;-82
2022/09/29 06:16:12;;;;;;;;;3.50;3.50;;;;;11.48;73.91;99219.84;5098318;27;45411;-78
2022/09/29 06:18:37;;;;;;;;;1.50;1.50;;;;;11.45;74.10;99213.81;5097496;27;45510;-79
2022/09/29 06:21:06;;;;;;;;;7.00;4.00;;;;;11.49;73.76;99213.66;5096148;27;45602;-79
2022/09/29 06:23:32;;;;;;;;;4.50;4.50;;;;;11.50;73.53;99210.03;5099811;27;45421;-80
2022/09/29 06:26:01;;;;;;;;;3.75;2.50;;;;;11.62;73.85;99215.72;5098270;27;45429;-79
2022/09/29 06:28:27;;;;;;;;;5.50;5.00;;;;;11.61;73.47;99214.00;5097982;27;45393;-79
2022/09/29 06:30:59;;;;;;;;;5.00;5.00;;;;;11.62;73.24;99206.00;5096483;27;45395;-79
2022/09/29 06:33:25;;;;;;;;;2.00;1.00;;;;;11.70;73.53;99217.06;5096931;27;46364;-78
2022/09/29 06:38:34;;;;;;;;;2.00;2.00;;;;;11.79;73.08;99225.53;5118668;27;45535;-80
2022/09/29 06:41:00;;;;;;;;;4.00;4.00;;;;;11.83;73.17;99217.38;5103280;27;45612;-81
2022/09/29 06:43:25;;;;;;;;;3.50;3.50;;;;;11.82;72.88;99210.34;5099463;27;45911;-78
2022/09/29 06:45:50;;;;;;;;;3.50;3.50;;;;;11.90;72.89;99205.56;5097791;27;45440;-79
2022/09/29 06:48:16;;;;;;;;;4.00;4.00;;;;;11.94;72.38;99210.75;5096354;27;45526;-79
2022/09/29 06:50:41;;;;;;;;;1.00;1.00;;;;;12.11;72.02;99226.69;5095627;27;45407;-79
2022/09/29 06:53:07;;;;;;;;;5.50;5.50;;;;;12.19;71.76;99223.66;5096957;27;46818;-78
2022/09/29 06:55:32;;;;;;;;;5.00;5.00;;;;;12.24;71.67;99213.72;5115756;27;45501;-80
2022/09/29 06:57:57;;;;;;;;;4.75;4.25;;;;;12.25;71.91;99213.66;5104140;27;45485;-78
2022/09/29 07:00:23;;;;;;;;;6.00;6.00;;;;;12.42;71.53;99230.53;5075098;27;45539;-79
2022/09/29 07:02:48;;;;;;;;;4.50;4.50;;;;;12.51;71.25;99229.19;5088700;27;47209;-79
2022/09/29 07:05:15;;;;;;;;;5.00;4.50;;;;;12.61;70.33;99235.75;5084291;27;45447;-79
2022/09/29 07:07:41;;;;;;;;;6.50;4.50;;;;;12.71;70.22;99236.19;5065775;27;45499;-77
2022/09/29 07:10:08;;;;;;;;;4.50;4.50;;;;;12.74;69.95;99220.97;5085504;27;45391;-79
2022/09/29 07:12:33;;;;;;;;;3.50;3.50;;;;;12.89;69.78;99245.84;5087648;27;45564;-80
2022/09/29 07:14:59;;;;;;;;;4.00;4.00;;;;;12.90;69.41;99231.66;5093122;27;45453;-81
2022/09/29 07:17:24;;;;;;;;;4.00;4.00;;;;;13.01;69.41;99239.03;5097440;27;45330;-81
2022/09/29 07:19:49;;;;;;;;;6.75;4.00;;;;;13.09;68.81;99238.69;5067310;27;45713;-79
2022/09/29 07:22:15;;;;;;;;;6.00;5.00;;;;;13.20;68.86;99220.41;5089685;27;45558;-77
2022/09/29 07:24:42;;;;;;;;;6.00;6.00;;;;;13.49;67.74;99223.34;5090893;27;45587;-78
2022/09/29 07:27:08;;;;;;;;;5.75;5.00;;;;;14.09;66.23;99237.81;5097685;27;45389;-79
2022/09/29 07:29:34;;;;;;;;;2.00;2.00;;;;;14.75;64.18;99234.94;5084415;27;45634;-82
2022/09/29 07:31:59;;;;;;;;;5.00;4.75;;;;;15.25;62.20;99234.69;5086076;27;45511;-82
2022/09/29 07:34:24;;;;;;;;;4.75;4.75;;;;;15.20;61.07;99197.72;5108900;27;45428;-80
2022/09/29 07:36:50;;;;;;;;;9.00;5.25;;;;;15.61;60.94;99257.38;5090109;27;45373;-79
2022/09/29 07:39:16;;;;;;;;;6.75;5.50;;;;;15.56;60.48;99235.47;5088553;27;45338;-80
2022/09/29 07:41:42;;;;;;;;;8.25;5.25;;;;;15.31;60.35;99202.38;5090170;27;45842;-80
2022/09/29 07:44:07;;;;;;;;;8.25;5.00;;;;;15.72;59.75;99249.56;5087979;27;45505;-79
2022/09/29 07:46:33;;;;;;;;;7.00;6.00;;;;;15.16;59.62;99155.41;5081167;27;45365;-80
2022/09/29 07:48:58;;;;;;;;;5.50;5.50;;;;;15.59;59.85;99228.16;5087777;27;45624;-80
2022/09/29 07:51:23;;;;;;;;;9.50;7.00;;;;;15.81;59.10;99256.16;5102871;27;45392;-80
2022/09/29 07:53:49;;;;;;;;;7.00;7.00;;;;;15.88;59.37;99269.94;5106057;27;45419;-78
2022/09/29 07:56:17;;;;;;;;;6.25;6.00;;;;;15.79;59.53;99244.72;5097322;27;45412;-80
2022/09/29 07:58:43;;;;;;;;;8.75;7.00;;;;;15.87;58.45;99260.25;5089971;27;45529;-80
2022/09/29 08:01:11;;;;;;;;;8.00;5.25;;;;;15.97;58.88;99254.25;5073773;27;46031;-81
2022/09/29 08:03:43;;;;;;;;;7.50;5.00;;;;;16.08;58.18;99284.66;5079980;27;45509;-81
2022/09/29 08:06:09;;;;;;;;;6.00;6.00;;;;;16.05;58.17;99277.75;5085572;27;45583;-82
2022/09/29 08:08:39;;;;;;;;;5.75;4.50;;;;;16.07;58.20;99285.63;5076545;27;45518;-81
2022/09/29 08:11:10;;;;;;;;;6.75;6.75;;;;;15.85;58.01;99259.47;5084513;27;45406;-81
2022/09/29 08:13:36;;;;;;;;;6.00;5.00;;;;;15.64;58.46;99235.88;5080424;27;45602;-82
2022/09/29 08:16:04;;;;;;;;;6.25;5.50;;;;;15.79;58.22;99285.56;5087041;27;45429;-82
2022/09/29 08:18:31;;;;;;;;;11.00;8.50;;;;;15.41;58.73;99227.50;5081684;27;45531;-82
2022/09/29 08:20:56;;;;;;;;;6.50;5.00;;;;;15.71;59.24;99271.81;5089313;27;46296;-79
2022/09/29 08:23:22;;;;;;;;;2.50;2.50;;;;;15.67;58.16;99235.69;5088427;27;45489;-82
2022/09/29 08:25:49;;;;;;;;;10.25;8.00;;;;;16.27;57.14;99281.69;5082178;27;45493;-79
2022/09/29 08:28:15;;;;;;;;;6.50;5.75;;;;;16.67;56.40;99279.09;5091317;27;45567;-80
2022/09/29 08:30:40;;;;;;;;;7.75;7.00;;;;;17.32;54.34;99275.66;5090514;27;45504;-81
2022/09/29 08:33:11;;;;;;;;;5.50;5.00;;;;;18.26;54.13;99287.81;5088134;27;45318;-82
2022/09/29 08:35:36;;;;;;;;;7.00;7.00;;;;;18.90;51.11;99294.78;5077387;27;45427;-81
2022/09/29 08:38:02;;;;;;;;;7.00;6.00;;;;;19.24;50.14;99284.22;5087421;27;45531;-82
2022/09/29 08:40:29;;;;;;;;;7.25;6.00;;;;;19.32;49.24;99291.66;5064478;27;47279;-82
2022/09/29 08:43:11;;;;;;;;;6.00;6.00;;;;;19.24;48.89;99276.19;5079432;27;45499;-80
2022/09/29 08:45:46;;;;;;;;;5.50;5.00;;;;;19.03;49.39;99276.00;5084643;27;45386;-80
2022/09/29 08:48:22;;;;;;;;;7.00;7.00;;;;;19.00;48.81;99298.47;5092446;27;45705;-81
2022/09/29 08:50:55;;;;;;;;;5.50;4.25;;;;;18.80;49.38;99307.97;5085193;27;45437;-81
2022/09/29 08:53:23;;;;;;;;;3.25;3.25;;;;;18.52;49.82;99303.78;5087779;27;45501;-82
2022/09/29 08:55:56;;;;;;;;;6.00;4.00;;;;;18.40;50.35;99313.59;5074825;27;45581;-82
2022/09/29 08:58:21;;;;;;;;;4.00;4.00;;;;;18.24;50.24;99319.16;5090010;27;45615;-82
2022/09/29 09:01:04;;;;;;;;;2.00;2.00;;;;;17.88;50.68;99277.16;5085456;27;45825;-82
2022/09/29 09:03:48;;;;;;;;;7.50;6.25;;;;;18.02;50.84;99321.66;5085341;27;45493;-82
2022/09/29 09:06:14;;;;;;;;;6.00;6.00;;;;;17.86;51.67;99320.03;5090985;27;45446;-79
2022/09/29 09:08:58;;;;;;;;;7.00;6.00;;;;;17.74;51.47;99318.22;5083900;27;45401;-80
2022/09/29 09:11:54;;;;;;;;;7.00;6.25;;;;;17.58;51.94;99316.63;5073337;27;45713;-80
2022/09/29 09:14:37;;;;;;;;;6.75;6.25;;;;;17.14;52.59;99285.81;5077794;27;45659;-79
2022/09/29 09:17:16;;;;;;;;;4.00;4.00;;;;;16.96;52.61;99284.34;5089718;27;45307;-80
2022/09/29 09:20:00;;;;;;;;;4.00;4.00;;;;;16.96;53.28;99327.94;5082575;27;45566;-80
2022/09/29 09:22:40;;;;;;;;;7.00;4.50;;;;;16.65;53.85;99303.19;5087889;27;45514;-81
2022/09/29 09:25:26;;;;;;;;;2.50;2.50;;;;;16.37;54.19;99271.28;5081599;27;45389;-80
2022/09/29 09:28:14;;;;;;;;;5.75;5.75;;;;;16.58;54.40;99323.25;5073146;27;45747;-81
2022/09/29 09:30:50;;;;;;;;;5.50;5.50;;;;;16.44;54.60;99326.81;5083515;27;45603;-81
2022/09/29 09:33:40;;;;;;;;;6.50;6.50;;;;;16.14;55.00;99287.81;5085920;27;45454;-82
2022/09/29 09:36:30;;;;;;;;;5.00;5.00;;;;;16.23;55.31;99325.50;5101136;27;45397;-82
2022/09/29 09:39:00;;;;;;;;;7.25;4.50;;;;;16.21;55.89;99324.75;5101672;27;45524;-83
2022/09/29 09:41:28;;;;;;;;;8.00;4.00;;;;;16.23;55.99;99338.81;5101477;27;45667;-83
2022/09/29 09:44:06;;;;;;;;;4.00;4.00;;;;;16.17;55.15;99329.41;5086006;27;46859;-82
2022/09/29 09:46:40;;;;;;;;;9.25;6.25;;;;;15.97;55.85;99294.22;5079944;27;45378;-82
2022/09/29 09:49:26;;;;;;;;;10.00;8.50;;;;;16.22;55.33;99337.97;5096415;27;45369;-82
2022/09/29 09:51:57;;;;;;;;;5.50;4.00;;;;;16.09;55.27;99319.22;5100161;27;45504;-82
2022/09/29 09:54:41;;;;;;;;;6.50;4.00;;;;;16.20;54.97;99337.22;5087579;27;45432;-82
2022/09/29 09:57:06;;;;;;;;;6.00;4.25;;;;;16.33;54.80;99346.13;5076275;27;45406;-81
2022/09/29 09:59:44;;;;;;;;;2.50;2.50;;;;;16.54;54.07;99321.72;5097125;27;45500;-80
2022/09/29 10:02:17;;;;;;;;;5.75;5.75;;;;;16.58;54.59;99343.72;5082062;27;45522;-81
2022/09/29 10:04:42;;;;;;;;;7.75;5.25;;;;;16.46;54.34;99340.03;5088516;27;45573;-81
2022/09/29 10:07:09;;;;;;;;;7.00;5.75;;;;;16.36;54.87;99347.75;5103503;27;45409;-79
2022/09/29 10:09:34;;;;;;;;;5.25;5.25;;;;;16.17;54.91;99348.06;5087644;27;45486;-78
2022/09/29 10:12:00;;;;;;;;;8.00;6.25;;;;;15.94;55.31;99331.72;5086758;27;45433;-80
2022/09/29 10:14:27;;;;;;;;;9.00;5.75;;;;;15.88;55.92;99350.75;5072499;27;46543;-82
2022/09/29 10:17:09;;;;;;;;;5.50;5.50;;;;;15.71;56.64;99343.72;5087891;27;45581;-80
2022/09/29 10:19:56;;;;;;;;;9.00;7.00;;;;;15.64;56.83;99355.72;5083712;27;45601;-80
2022/09/29 10:22:22;;;;;;;;;10.00;6.00;;;;;15.39;58.52;99346.50;5095447;27;45476;-82
2022/09/29 10:24:47;;;;;;;;;10.75;8.75;;;;;15.32;59.30;99357.59;5067772;27;46885;-83
2022/09/29 10:27:19;;;;;;;;;7.00;7.00;;;;;14.87;59.48;99321.16;5088602;27;45615;-81
2022/09/29 10:29:49;;;;;;;;;9.25;8.25;;;;;14.81;60.13;99344.59;5095747;27;45446;-82
2022/09/29 10:32:18;;;;;;;;;11.25;9.25;;;;;14.71;61.37;99371.72;5079727;27;45438;-82
2022/09/29 10:34:46;;;;;;;;;11.25;11.25;;;;;14.53;62.09;99375.34;5082982;27;45475;-82
2022/09/29 10:37:36;;;;;;;;;10.00;8.50;;;;;14.15;62.75;99359.69;5099584;27;45766;-81
2022/09/29 10:40:16;;;;;;;;;7.25;5.00;;;;;13.96;62.78;99375.78;5098629;27;45473;-82
2022/09/29 10:42:47;;;;;;;;;8.50;8.50;;;;;13.64;64.55;99371.19;5098279;27;47054;-81
2022/09/29 10:45:17;;;;;;;;;8.75;7.75;;;;;13.52;65.05;99377.13;5085218;27;46808;-81
2022/09/29 10:48:05;;;;;;;;;10.75;10.50;;;;;13.42;65.51;99373.22;5100173;27;45404;-81
2022/09/29 10:50:35;;;;;;;;;8.25;8.25;;;;;13.37;66.13;99385.88;5093089;27;45549;-81
2022/09/29 10:53:05;;;;;;;;;10.75;10.25;;;;;13.30;66.43;99378.19;5094705;27;45022;-82
2022/09/29 10:55:33;;;;;;;;;7.50;7.50;;;;;13.04;66.68;99346.78;5098477;27;45485;-80
2022/09/29 10:58:16;;;;;;;;;13.50;10.25;;;;;13.24;67.46;99385.59;5088793;27;45513;-80
2022/09/29 11:00:42;;;;;;;;;9.00;9.00;;;;;13.23;68.06;99384.72;5092692;27;45796;-80
2022/09/29 11:03:18;;;;;;;;;7.00;7.00;;;;;13.17;67.33;99386.84;5078561;27;45575;-80
2022/09/29 11:06:03;;;;;;;;;9.00;9.00;;;;;13.16;68.21;99380.66;5080795;27;46165;-80
2022/09/29 11:08:30;;;;;;;;;10.50;9.00;;;;;13.14;67.26;99375.44;5091601;27;45447;-80
2022/09/29 11:11:24;;;;;;;;;7.25;7.00;;;;;13.21;66.06;99393.69;5084203;27;45454;-80
2022/09/29 11:13:51;;;;;;;;;7.75;7.25;;;;;13.17;65.41;99385.03;5078437;27;45452;-80
2022/09/29 11:16:29;;;;;;;;;4.50;4.50;;;;;13.12;64.85;99400.34;5043104;27;45541;-80
2022/09/29 11:19:08;;;;;;;;;4.25;1.75;;;;;12.58;63.95;99326.88;5083962;27;45536;-79
2022/09/29 11:21:43;;;;;;;;;6.50;5.00;;;;;12.75;64.94;99364.97;5078526;27;45395;-80
2022/09/29 11:24:20;;;;;;;;;5.00;5.00;;;;;12.98;66.47;99420.44;5087100;27;45410;-80
2022/09/29 11:27:21;;;;;;;;;5.75;5.75;;;;;12.79;67.73;99406.31;5085784;27;45410;-80
2022/09/29 11:30:10;;;;;;;;;10.25;9.75;;;;;12.51;71.73;99404.97;5048537;27;45524;-81
2022/09/29 11:32:56;;;;;;;;;10.00;9.00;;;;;12.50;75.48;99437.72;5088902;27;45399;-82
2022/09/29 11:35:40;;;;;;;;;15.75;13.00;;;;;12.35;78.45;99441.06;5108145;27;45605;-84
2022/09/29 11:38:39;;;;;;;;;14.00;13.50;;;;;12.32;80.22;99438.56;5092734;27;45484;-79
2022/09/29 11:41:19;;;;;;;;;26.50;23.50;;;;;12.15;82.53;99428.72;5096322;27;45438;-80
2022/09/29 11:43:54;;;;;;;;;16.25;14.25;;;;;11.97;81.73;99425.94;5072179;27;45483;-80
2022/09/29 11:46:31;;;;;;;;;13.75;13.25;;;;;11.93;82.48;99447.31;5093116;27;45572;-81
2022/09/29 11:49:24;;;;;;;;;18.25;18.25;;;;;11.85;83.99;99450.28;5086973;27;45695;-81
2022/09/29 11:52:00;;;;;;;;;16.00;15.00;;;;;11.85;83.90;99448.47;5085948;27;45445;-80